sensor_id;sensor_type;location;lat;lon;timestamp;P1;durP1;ratioP1;P2;durP2;ratioP2
54372;SDS011;40271;48.798;10.178;2022-10-16T00:01:15;3.83;;;2.75;;
54372;SDS011;40271;48.798;10.178;2022-10-16T00:03:43;5.10;;;2.35;;
54372;SDS011;40271;48.798;10.178;2022-10-16T00:06:09;3.17;;;2.20;;
54372;SDS011;40271;48.798;10.178;2022-10-16T00:08:36;3.15;;;2.70;;
54372;SDS011;40271;48.798;10.178;2022-10-16T00:11:04;4.70;;;3.30;;
54372;SDS011;40271;48.798;10.178;2022-10-16T00:13:31;4.35;;;3.10;;
54372;SDS011;40271;48.798;10.178;2022-10-16T00:15:58;3.83;;;2.35;;
54372;SDS011;40271;48.798;10.178;2022-10-16T00:18:24;3.47;;;2.50;;
54372;SDS011;40271;48.798;10.178;2022-10-16T00:20:50;2.67;;;2.33;;
54372;SDS011;40271;48.798;10.178;2022-10-16T00:23:17;3.47;;;2.33;;
54372;SDS011;40271;48.798;10.178;2022-10-16T00:25:43;2.97;;;2.67;;
54372;SDS011;40271;48.798;10.178;2022-10-16T00:28:09;3.30;;;2.30;;
54372;SDS011;40271;48.798;10.178;2022-10-16T00:30:38;2.97;;;2.00;;
54372;SDS011;40271;48.798;10.178;2022-10-16T00:33:04;2.25;;;1.85;;
54372;SDS011;40271;48.798;10.178;2022-10-16T00:35:31;2.53;;;2.10;;
54372;SDS011;40271;48.798;10.178;2022-10-16T00:37:57;5.10;;;1.70;;
54372;SDS011;40271;48.798;10.178;2022-10-16T00:40:23;5.75;;;1.63;;
54372;SDS011;40271;48.798;10.178;2022-10-16T00:42:49;1.80;;;1.55;;
54372;SDS011;40271;48.798;10.178;2022-10-16T00:45:15;2.88;;;1.60;;
54372;SDS011;40271;48.798;10.178;2022-10-16T00:47:45;5.43;;;1.60;;
54372;SDS011;40271;48.798;10.178;2022-10-16T00:52:46;4.25;;;1.50;;
54372;SDS011;40271;48.798;10.178;2022-10-16T00:55:13;2.35;;;1.42;;
54372;SDS011;40271;48.798;10.178;2022-10-16T00:57:40;5.90;;;1.80;;
54372;SDS011;40271;48.798;10.178;2022-10-16T01:00:07;2.30;;;1.77;;
54372;SDS011;40271;48.798;10.178;2022-10-16T01:02:34;1.88;;;1.58;;
54372;SDS011;40271;48.798;10.178;2022-10-16T01:05:00;3.67;;;1.65;;
54372;SDS011;40271;48.798;10.178;2022-10-16T01:17:34;2.08;;;1.60;;
54372;SDS011;40271;48.798;10.178;2022-10-16T01:22:32;2.08;;;1.73;;
54372;SDS011;40271;48.798;10.178;2022-10-16T01:24:59;2.92;;;1.88;;
54372;SDS011;40271;48.798;10.178;2022-10-16T01:27:27;3.33;;;2.00;;
54372;SDS011;40271;48.798;10.178;2022-10-16T01:30:11;3.30;;;2.15;;
54372;SDS011;40271;48.798;10.178;2022-10-16T01:35:06;4.38;;;1.92;;
54372;SDS011;40271;48.798;10.178;2022-10-16T01:37:38;6.13;;;2.65;;
54372;SDS011;40271;48.798;10.178;2022-10-16T01:40:08;5.93;;;2.63;;
54372;SDS011;40271;48.798;10.178;2022-10-16T01:42:36;3.25;;;1.83;;
54372;SDS011;40271;48.798;10.178;2022-10-16T01:45:03;3.03;;;1.92;;
54372;SDS011;40271;48.798;10.178;2022-10-16T01:47:32;3.22;;;2.22;;
54372;SDS011;40271;48.798;10.178;2022-10-16T01:49:59;4.10;;;1.98;;
54372;SDS011;40271;48.798;10.178;2022-10-16T01:52:27;4.13;;;2.83;;
54372;SDS011;40271;48.798;10.178;2022-10-16T01:54:54;7.60;;;3.72;;
54372;SDS011;40271;48.798;10.178;2022-10-16T01:57:21;9.05;;;4.50;;
54372;SDS011;40271;48.798;10.178;2022-10-16T01:59:49;6.03;;;3.20;;
54372;SDS011;40271;48.798;10.178;2022-10-16T02:02:16;5.63;;;2.83;;
54372;SDS011;40271;48.798;10.178;2022-10-16T02:04:44;6.32;;;2.42;;
54372;SDS011;40271;48.798;10.178;2022-10-16T02:07:10;4.25;;;2.85;;
54372;SDS011;40271;48.798;10.178;2022-10-16T02:09:37;5.25;;;2.67;;
54372;SDS011;40271;48.798;10.178;2022-10-16T02:12:06;5.88;;;2.97;;
54372;SDS011;40271;48.798;10.178;2022-10-16T02:14:34;3.15;;;2.85;;
54372;SDS011;40271;48.798;10.178;2022-10-16T02:17:09;4.68;;;3.00;;
54372;SDS011;40271;48.798;10.178;2022-10-16T02:19:36;6.82;;;3.22;;
54372;SDS011;40271;48.798;10.178;2022-10-16T02:22:03;3.00;;;2.65;;
54372;SDS011;40271;48.798;10.178;2022-10-16T02:29:27;3.25;;;2.33;;
54372;SDS011;40271;48.798;10.178;2022-10-16T02:31:55;5.18;;;2.60;;
54372;SDS011;40271;48.798;10.178;2022-10-16T02:34:22;3.30;;;1.98;;
54372;SDS011;40271;48.798;10.178;2022-10-16T02:36:50;3.85;;;2.30;;
54372;SDS011;40271;48.798;10.178;2022-10-16T02:39:16;6.47;;;2.60;;
54372;SDS011;40271;48.798;10.178;2022-10-16T02:41:43;3.25;;;2.20;;
54372;SDS011;40271;48.798;10.178;2022-10-16T02:44:09;3.38;;;1.98;;
54372;SDS011;40271;48.798;10.178;2022-10-16T02:46:35;2.25;;;1.92;;
54372;SDS011;40271;48.798;10.178;2022-10-16T02:49:01;2.28;;;2.08;;
54372;SDS011;40271;48.798;10.178;2022-10-16T02:51:27;4.68;;;2.78;;
54372;SDS011;40271;48.798;10.178;2022-10-16T02:53:53;4.45;;;2.53;;
54372;SDS011;40271;48.798;10.178;2022-10-16T02:56:19;4.82;;;2.88;;
54372;SDS011;40271;48.798;10.178;2022-10-16T02:58:45;4.72;;;3.30;;
54372;SDS011;40271;48.798;10.178;2022-10-16T03:01:11;4.15;;;3.00;;
54372;SDS011;40271;48.798;10.178;2022-10-16T03:03:39;4.78;;;3.05;;
54372;SDS011;40271;48.798;10.178;2022-10-16T03:06:05;5.70;;;3.53;;
54372;SDS011;40271;48.798;10.178;2022-10-16T03:08:31;5.60;;;3.88;;
54372;SDS011;40271;48.798;10.178;2022-10-16T03:10:57;3.92;;;2.90;;
54372;SDS011;40271;48.798;10.178;2022-10-16T03:13:23;8.38;;;3.45;;
54372;SDS011;40271;48.798;10.178;2022-10-16T03:15:49;5.80;;;3.85;;
54372;SDS011;40271;48.798;10.178;2022-10-16T03:18:15;7.38;;;3.63;;
54372;SDS011;40271;48.798;10.178;2022-10-16T03:20:42;5.45;;;3.75;;
54372;SDS011;40271;48.798;10.178;2022-10-16T03:23:08;6.00;;;3.92;;
54372;SDS011;40271;48.798;10.178;2022-10-16T03:25:34;4.93;;;3.97;;
54372;SDS011;40271;48.798;10.178;2022-10-16T03:28:00;7.25;;;4.07;;
54372;SDS011;40271;48.798;10.178;2022-10-16T03:30:26;5.15;;;3.67;;
54372;SDS011;40271;48.798;10.178;2022-10-16T03:32:52;6.05;;;3.30;;
54372;SDS011;40271;48.798;10.178;2022-10-16T03:35:22;4.35;;;3.25;;
54372;SDS011;40271;48.798;10.178;2022-10-16T03:37:48;5.53;;;3.50;;
54372;SDS011;40271;48.798;10.178;2022-10-16T03:40:15;6.43;;;3.75;;
54372;SDS011;40271;48.798;10.178;2022-10-16T03:42:42;5.75;;;3.20;;
54372;SDS011;40271;48.798;10.178;2022-10-16T03:45:08;4.38;;;3.15;;
54372;SDS011;40271;48.798;10.178;2022-10-16T03:47:34;5.05;;;3.42;;
54372;SDS011;40271;48.798;10.178;2022-10-16T03:50:00;4.03;;;3.10;;
54372;SDS011;40271;48.798;10.178;2022-10-16T03:52:26;4.05;;;3.00;;
54372;SDS011;40271;48.798;10.178;2022-10-16T03:54:52;3.55;;;3.03;;
54372;SDS011;40271;48.798;10.178;2022-10-16T03:57:18;4.40;;;2.90;;
54372;SDS011;40271;48.798;10.178;2022-10-16T03:59:45;3.50;;;2.78;;
54372;SDS011;40271;48.798;10.178;2022-10-16T04:02:12;2.88;;;2.40;;
54372;SDS011;40271;48.798;10.178;2022-10-16T04:04:38;3.85;;;2.80;;
54372;SDS011;40271;48.798;10.178;2022-10-16T04:07:04;4.38;;;3.15;;
54372;SDS011;40271;48.798;10.178;2022-10-16T04:09:30;5.63;;;3.45;;
54372;SDS011;40271;48.798;10.178;2022-10-16T04:11:56;4.93;;;3.08;;
54372;SDS011;40271;48.798;10.178;2022-10-16T04:14:22;4.10;;;3.10;;
54372;SDS011;40271;48.798;10.178;2022-10-16T04:16:48;4.80;;;2.90;;
54372;SDS011;40271;48.798;10.178;2022-10-16T04:19:14;4.82;;;2.80;;
54372;SDS011;40271;48.798;10.178;2022-10-16T04:21:40;7.47;;;3.22;;
54372;SDS011;40271;48.798;10.178;2022-10-16T04:24:06;5.47;;;2.80;;
54372;SDS011;40271;48.798;10.178;2022-10-16T04:26:32;3.95;;;2.90;;
54372;SDS011;40271;48.798;10.178;2022-10-16T04:28:58;9.05;;;3.08;;
54372;SDS011;40271;48.798;10.178;2022-10-16T04:31:24;4.40;;;2.80;;
54372;SDS011;40271;48.798;10.178;2022-10-16T04:33:50;10.65;;;5.65;;
54372;SDS011;40271;48.798;10.178;2022-10-16T04:36:16;7.85;;;5.38;;
54372;SDS011;40271;48.798;10.178;2022-10-16T04:38:42;5.55;;;3.95;;
54372;SDS011;40271;48.798;10.178;2022-10-16T04:41:08;3.83;;;3.00;;
54372;SDS011;40271;48.798;10.178;2022-10-16T04:43:34;3.95;;;2.95;;
54372;SDS011;40271;48.798;10.178;2022-10-16T04:46:00;3.88;;;3.00;;
54372;SDS011;40271;48.798;10.178;2022-10-16T04:48:26;4.43;;;3.00;;
54372;SDS011;40271;48.798;10.178;2022-10-16T04:50:52;6.65;;;3.20;;
54372;SDS011;40271;48.798;10.178;2022-10-16T04:53:18;6.45;;;3.20;;
54372;SDS011;40271;48.798;10.178;2022-10-16T04:55:45;5.50;;;3.30;;
54372;SDS011;40271;48.798;10.178;2022-10-16T04:58:11;5.78;;;3.15;;
54372;SDS011;40271;48.798;10.178;2022-10-16T05:00:37;7.38;;;3.58;;
54372;SDS011;40271;48.798;10.178;2022-10-16T05:03:03;6.78;;;3.47;;
54372;SDS011;40271;48.798;10.178;2022-10-16T05:05:32;4.43;;;3.13;;
54372;SDS011;40271;48.798;10.178;2022-10-16T05:07:58;6.07;;;3.30;;
54372;SDS011;40271;48.798;10.178;2022-10-16T05:10:24;6.18;;;3.95;;
54372;SDS011;40271;48.798;10.178;2022-10-16T05:12:50;5.65;;;3.92;;
54372;SDS011;40271;48.798;10.178;2022-10-16T05:15:17;6.43;;;3.92;;
54372;SDS011;40271;48.798;10.178;2022-10-16T05:17:43;6.05;;;4.03;;
54372;SDS011;40271;48.798;10.178;2022-10-16T05:20:09;7.15;;;4.18;;
54372;SDS011;40271;48.798;10.178;2022-10-16T05:22:35;7.78;;;4.18;;
54372;SDS011;40271;48.798;10.178;2022-10-16T05:25:01;8.57;;;4.80;;
54372;SDS011;40271;48.798;10.178;2022-10-16T05:27:27;7.82;;;4.35;;
54372;SDS011;40271;48.798;10.178;2022-10-16T05:29:53;7.20;;;4.25;;
54372;SDS011;40271;48.798;10.178;2022-10-16T05:32:19;6.40;;;4.22;;
54372;SDS011;40271;48.798;10.178;2022-10-16T05:34:45;6.40;;;4.30;;
54372;SDS011;40271;48.798;10.178;2022-10-16T05:37:11;6.80;;;4.20;;
54372;SDS011;40271;48.798;10.178;2022-10-16T05:39:38;6.80;;;4.25;;
54372;SDS011;40271;48.798;10.178;2022-10-16T05:42:04;6.82;;;4.38;;
54372;SDS011;40271;48.798;10.178;2022-10-16T05:44:30;7.38;;;4.32;;
54372;SDS011;40271;48.798;10.178;2022-10-16T05:46:56;10.00;;;4.97;;
54372;SDS011;40271;48.798;10.178;2022-10-16T05:49:22;6.13;;;4.43;;
54372;SDS011;40271;48.798;10.178;2022-10-16T05:51:48;9.20;;;4.38;;
54372;SDS011;40271;48.798;10.178;2022-10-16T05:54:14;7.43;;;4.78;;
54372;SDS011;40271;48.798;10.178;2022-10-16T05:56:40;8.25;;;4.43;;
54372;SDS011;40271;48.798;10.178;2022-10-16T05:59:06;7.07;;;4.45;;
54372;SDS011;40271;48.798;10.178;2022-10-16T06:01:32;8.23;;;4.50;;
54372;SDS011;40271;48.798;10.178;2022-10-16T06:03:58;6.93;;;4.40;;
54372;SDS011;40271;48.798;10.178;2022-10-16T06:06:25;6.75;;;4.38;;
54372;SDS011;40271;48.798;10.178;2022-10-16T06:08:52;7.80;;;4.88;;
54372;SDS011;40271;48.798;10.178;2022-10-16T06:11:19;7.32;;;4.82;;
54372;SDS011;40271;48.798;10.178;2022-10-16T06:13:52;5.95;;;4.40;;
54372;SDS011;40271;48.798;10.178;2022-10-16T06:16:19;6.85;;;4.63;;
54372;SDS011;40271;48.798;10.178;2022-10-16T06:18:45;7.50;;;4.60;;
54372;SDS011;40271;48.798;10.178;2022-10-16T06:21:13;7.40;;;4.40;;
54372;SDS011;40271;48.798;10.178;2022-10-16T06:23:39;5.35;;;3.72;;
54372;SDS011;40271;48.798;10.178;2022-10-16T06:26:09;7.20;;;5.07;;
54372;SDS011;40271;48.798;10.178;2022-10-16T06:28:36;6.30;;;4.25;;
54372;SDS011;40271;48.798;10.178;2022-10-16T06:31:02;11.55;;;6.45;;
54372;SDS011;40271;48.798;10.178;2022-10-16T06:33:29;10.15;;;6.82;;
54372;SDS011;40271;48.798;10.178;2022-10-16T06:36:05;12.75;;;7.43;;
54372;SDS011;40271;48.798;10.178;2022-10-16T06:38:32;10.07;;;6.97;;
54372;SDS011;40271;48.798;10.178;2022-10-16T06:40:58;8.63;;;5.70;;
54372;SDS011;40271;48.798;10.178;2022-10-16T06:43:24;7.47;;;5.40;;
54372;SDS011;40271;48.798;10.178;2022-10-16T06:45:51;7.80;;;5.40;;
54372;SDS011;40271;48.798;10.178;2022-10-16T06:48:18;10.23;;;6.43;;
54372;SDS011;40271;48.798;10.178;2022-10-16T06:50:44;10.55;;;7.28;;
54372;SDS011;40271;48.798;10.178;2022-10-16T06:53:10;10.63;;;7.03;;
54372;SDS011;40271;48.798;10.178;2022-10-16T06:55:36;12.05;;;7.93;;
54372;SDS011;40271;48.798;10.178;2022-10-16T06:58:01;10.73;;;6.03;;
54372;SDS011;40271;48.798;10.178;2022-10-16T07:00:28;7.53;;;5.10;;
54372;SDS011;40271;48.798;10.178;2022-10-16T07:02:54;6.82;;;4.72;;
54372;SDS011;40271;48.798;10.178;2022-10-16T07:05:20;6.13;;;4.40;;
54372;SDS011;40271;48.798;10.178;2022-10-16T07:07:45;6.43;;;4.50;;
54372;SDS011;40271;48.798;10.178;2022-10-16T07:10:11;6.47;;;4.38;;
54372;SDS011;40271;48.798;10.178;2022-10-16T07:12:37;6.63;;;4.32;;
54372;SDS011;40271;48.798;10.178;2022-10-16T07:15:04;10.70;;;4.82;;
54372;SDS011;40271;48.798;10.178;2022-10-16T07:17:30;9.77;;;4.53;;
54372;SDS011;40271;48.798;10.178;2022-10-16T07:19:56;4.72;;;3.97;;
54372;SDS011;40271;48.798;10.178;2022-10-16T07:22:22;5.20;;;3.95;;
54372;SDS011;40271;48.798;10.178;2022-10-16T07:24:48;6.20;;;4.40;;
54372;SDS011;40271;48.798;10.178;2022-10-16T07:27:15;5.43;;;4.10;;
54372;SDS011;40271;48.798;10.178;2022-10-16T07:29:41;5.70;;;3.70;;
54372;SDS011;40271;48.798;10.178;2022-10-16T07:32:07;5.65;;;3.60;;
54372;SDS011;40271;48.798;10.178;2022-10-16T07:34:33;5.63;;;3.50;;
54372;SDS011;40271;48.798;10.178;2022-10-16T07:36:59;4.88;;;3.55;;
54372;SDS011;40271;48.798;10.178;2022-10-16T07:39:25;4.13;;;3.10;;
54372;SDS011;40271;48.798;10.178;2022-10-16T07:41:51;4.05;;;2.80;;
54372;SDS011;40271;48.798;10.178;2022-10-16T07:44:17;5.25;;;3.33;;
54372;SDS011;40271;48.798;10.178;2022-10-16T07:46:43;4.15;;;3.00;;
54372;SDS011;40271;48.798;10.178;2022-10-16T07:49:09;3.58;;;2.53;;
54372;SDS011;40271;48.798;10.178;2022-10-16T07:51:35;3.53;;;2.80;;
54372;SDS011;40271;48.798;10.178;2022-10-16T07:54:03;3.20;;;2.63;;
54372;SDS011;40271;48.798;10.178;2022-10-16T07:56:30;4.13;;;2.75;;
54372;SDS011;40271;48.798;10.178;2022-10-16T07:58:57;3.30;;;2.72;;
54372;SDS011;40271;48.798;10.178;2022-10-16T08:01:23;3.72;;;2.10;;
54372;SDS011;40271;48.798;10.178;2022-10-16T08:03:50;4.88;;;3.00;;
54372;SDS011;40271;48.798;10.178;2022-10-16T08:06:17;3.40;;;2.60;;
54372;SDS011;40271;48.798;10.178;2022-10-16T08:08:43;3.95;;;2.40;;
54372;SDS011;40271;48.798;10.178;2022-10-16T08:11:10;6.47;;;2.50;;
54372;SDS011;40271;48.798;10.178;2022-10-16T08:13:36;3.67;;;2.35;;
54372;SDS011;40271;48.798;10.178;2022-10-16T08:16:02;3.58;;;2.22;;
54372;SDS011;40271;48.798;10.178;2022-10-16T08:18:33;4.22;;;2.30;;
54372;SDS011;40271;48.798;10.178;2022-10-16T08:20:59;3.58;;;2.00;;
54372;SDS011;40271;48.798;10.178;2022-10-16T08:23:26;3.78;;;2.38;;
54372;SDS011;40271;48.798;10.178;2022-10-16T08:25:52;4.65;;;1.90;;
54372;SDS011;40271;48.798;10.178;2022-10-16T08:28:19;2.67;;;2.03;;
54372;SDS011;40271;48.798;10.178;2022-10-16T08:30:45;2.55;;;2.05;;
54372;SDS011;40271;48.798;10.178;2022-10-16T08:33:11;3.67;;;1.85;;
54372;SDS011;40271;48.798;10.178;2022-10-16T08:35:37;2.88;;;2.20;;
54372;SDS011;40271;48.798;10.178;2022-10-16T08:38:06;3.58;;;2.10;;
54372;SDS011;40271;48.798;10.178;2022-10-16T08:40:33;4.72;;;1.90;;
54372;SDS011;40271;48.798;10.178;2022-10-16T08:50:27;2.10;;;1.58;;
54372;SDS011;40271;48.798;10.178;2022-10-16T08:52:54;2.80;;;1.75;;
54372;SDS011;40271;48.798;10.178;2022-10-16T08:58:12;2.33;;;1.50;;
54372;SDS011;40271;48.798;10.178;2022-10-16T09:00:39;3.80;;;1.70;;
54372;SDS011;40271;48.798;10.178;2022-10-16T09:03:22;1.52;;;1.33;;
54372;SDS011;40271;48.798;10.178;2022-10-16T09:11:15;3.80;;;1.40;;
54372;SDS011;40271;48.798;10.178;2022-10-16T09:18:45;2.22;;;1.67;;
54372;SDS011;40271;48.798;10.178;2022-10-16T09:23:46;3.05;;;1.85;;
54372;SDS011;40271;48.798;10.178;2022-10-16T09:26:13;4.07;;;1.88;;
54372;SDS011;40271;48.798;10.178;2022-10-16T09:28:39;3.85;;;2.53;;
54372;SDS011;40271;48.798;10.178;2022-10-16T09:31:07;3.08;;;1.80;;
54372;SDS011;40271;48.798;10.178;2022-10-16T09:33:36;2.97;;;2.17;;
54372;SDS011;40271;48.798;10.178;2022-10-16T09:36:03;2.47;;;2.15;;
54372;SDS011;40271;48.798;10.178;2022-10-16T09:38:35;5.30;;;1.67;;
54372;SDS011;40271;48.798;10.178;2022-10-16T09:41:02;1.65;;;1.55;;
54372;SDS011;40271;48.798;10.178;2022-10-16T09:43:38;2.17;;;1.70;;
54372;SDS011;40271;48.798;10.178;2022-10-16T09:46:06;3.28;;;2.13;;
54372;SDS011;40271;48.798;10.178;2022-10-16T09:51:02;4.28;;;1.75;;
54372;SDS011;40271;48.798;10.178;2022-10-16T09:53:39;3.83;;;1.88;;
54372;SDS011;40271;48.798;10.178;2022-10-16T09:56:05;3.45;;;2.45;;
54372;SDS011;40271;48.798;10.178;2022-10-16T09:58:32;3.00;;;1.98;;
54372;SDS011;40271;48.798;10.178;2022-10-16T10:00:58;5.45;;;2.42;;
54372;SDS011;40271;48.798;10.178;2022-10-16T10:03:33;4.82;;;2.15;;
54372;SDS011;40271;48.798;10.178;2022-10-16T10:06:00;3.08;;;2.30;;
54372;SDS011;40271;48.798;10.178;2022-10-16T10:08:27;3.88;;;2.10;;
54372;SDS011;40271;48.798;10.178;2022-10-16T10:10:53;2.00;;;1.80;;
54372;SDS011;40271;48.798;10.178;2022-10-16T10:13:20;3.55;;;2.05;;
54372;SDS011;40271;48.798;10.178;2022-10-16T10:15:47;3.78;;;1.90;;
54372;SDS011;40271;48.798;10.178;2022-10-16T10:18:17;4.10;;;1.90;;
54372;SDS011;40271;48.798;10.178;2022-10-16T10:20:45;5.75;;;1.90;;
54372;SDS011;40271;48.798;10.178;2022-10-16T10:23:21;3.40;;;2.00;;
54372;SDS011;40271;48.798;10.178;2022-10-16T10:33:41;4.18;;;2.08;;
54372;SDS011;40271;48.798;10.178;2022-10-16T10:46:19;4.28;;;2.28;;
54372;SDS011;40271;48.798;10.178;2022-10-16T10:51:53;2.28;;;1.33;;
54372;SDS011;40271;48.798;10.178;2022-10-16T10:57:03;3.15;;;1.42;;
54372;SDS011;40271;48.798;10.178;2022-10-16T11:07:20;3.97;;;1.50;;
54372;SDS011;40271;48.798;10.178;2022-10-16T11:17:33;1.90;;;1.40;;
54372;SDS011;40271;48.798;10.178;2022-10-16T11:22:36;2.78;;;1.42;;
54372;SDS011;40271;48.798;10.178;2022-10-16T11:30:28;1.73;;;1.00;;
54372;SDS011;40271;48.798;10.178;2022-10-16T11:38:15;1.25;;;1.15;;
54372;SDS011;40271;48.798;10.178;2022-10-16T11:40:43;1.50;;;0.93;;
54372;SDS011;40271;48.798;10.178;2022-10-16T11:43:12;1.45;;;1.08;;
54372;SDS011;40271;48.798;10.178;2022-10-16T11:53:11;2.65;;;1.10;;
54372;SDS011;40271;48.798;10.178;2022-10-16T11:55:40;2.00;;;1.02;;
54372;SDS011;40271;48.798;10.178;2022-10-16T11:58:09;4.43;;;1.27;;
54372;SDS011;40271;48.798;10.178;2022-10-16T12:08:34;2.83;;;1.20;;
54372;SDS011;40271;48.798;10.178;2022-10-16T12:11:20;1.60;;;1.13;;
54372;SDS011;40271;48.798;10.178;2022-10-16T12:13:47;2.05;;;1.10;;
54372;SDS011;40271;48.798;10.178;2022-10-16T12:18:40;1.42;;;0.90;;
54372;SDS011;40271;48.798;10.178;2022-10-16T12:21:07;4.32;;;1.20;;
54372;SDS011;40271;48.798;10.178;2022-10-16T12:23:37;2.22;;;1.10;;
54372;SDS011;40271;48.798;10.178;2022-10-16T12:26:04;1.40;;;1.00;;
54372;SDS011;40271;48.798;10.178;2022-10-16T12:28:31;2.00;;;0.95;;
54372;SDS011;40271;48.798;10.178;2022-10-16T12:30:58;1.25;;;1.02;;
54372;SDS011;40271;48.798;10.178;2022-10-16T12:33:35;2.40;;;1.10;;
54372;SDS011;40271;48.798;10.178;2022-10-16T12:36:03;2.28;;;1.13;;
54372;SDS011;40271;48.798;10.178;2022-10-16T12:38:36;2.05;;;0.82;;
54372;SDS011;40271;48.798;10.178;2022-10-16T12:41:07;1.23;;;1.10;;
54372;SDS011;40271;48.798;10.178;2022-10-16T12:48:35;1.73;;;0.95;;
54372;SDS011;40271;48.798;10.178;2022-10-16T12:51:12;1.98;;;1.02;;
54372;SDS011;40271;48.798;10.178;2022-10-16T12:53:46;1.08;;;0.98;;
54372;SDS011;40271;48.798;10.178;2022-10-16T13:04:05;1.27;;;0.80;;
54372;SDS011;40271;48.798;10.178;2022-10-16T13:06:45;2.55;;;0.90;;
54372;SDS011;40271;48.798;10.178;2022-10-16T13:14:37;0.65;;;0.65;;
54372;SDS011;40271;48.798;10.178;2022-10-16T13:17:31;1.05;;;0.77;;
54372;SDS011;40271;48.798;10.178;2022-10-16T13:29:52;3.22;;;0.95;;
54372;SDS011;40271;48.798;10.178;2022-10-16T13:32:20;2.42;;;1.00;;
54372;SDS011;40271;48.798;10.178;2022-10-16T13:34:47;1.52;;;0.70;;
54372;SDS011;40271;48.798;10.178;2022-10-16T13:37:32;1.45;;;0.90;;
54372;SDS011;40271;48.798;10.178;2022-10-16T13:40:12;2.30;;;0.90;;
54372;SDS011;40271;48.798;10.178;2022-10-16T13:42:44;1.15;;;0.80;;
54372;SDS011;40271;48.798;10.178;2022-10-16T13:45:19;1.30;;;1.02;;
54372;SDS011;40271;48.798;10.178;2022-10-16T13:47:46;1.52;;;0.80;;
54372;SDS011;40271;48.798;10.178;2022-10-16T13:50:13;2.45;;;1.00;;
54372;SDS011;40271;48.798;10.178;2022-10-16T13:52:39;1.08;;;0.93;;
54372;SDS011;40271;48.798;10.178;2022-10-16T13:57:39;3.70;;;0.90;;
54372;SDS011;40271;48.798;10.178;2022-10-16T14:00:21;1.52;;;0.75;;
54372;SDS011;40271;48.798;10.178;2022-10-16T14:02:51;1.08;;;0.80;;
54372;SDS011;40271;48.798;10.178;2022-10-16T14:05:21;1.77;;;0.90;;
54372;SDS011;40271;48.798;10.178;2022-10-16T14:07:48;2.25;;;0.90;;
54372;SDS011;40271;48.798;10.178;2022-10-16T14:10:23;2.65;;;1.05;;
54372;SDS011;40271;48.798;10.178;2022-10-16T14:13:04;1.95;;;0.80;;
54372;SDS011;40271;48.798;10.178;2022-10-16T14:15:31;3.03;;;1.13;;
54372;SDS011;40271;48.798;10.178;2022-10-16T14:17:58;2.28;;;1.00;;
54372;SDS011;40271;48.798;10.178;2022-10-16T14:20:26;1.55;;;1.00;;
54372;SDS011;40271;48.798;10.178;2022-10-16T14:22:59;2.15;;;1.10;;
54372;SDS011;40271;48.798;10.178;2022-10-16T14:25:27;3.70;;;1.25;;
54372;SDS011;40271;48.798;10.178;2022-10-16T14:30:26;1.92;;;0.90;;
54372;SDS011;40271;48.798;10.178;2022-10-16T14:32:53;1.50;;;1.00;;
54372;SDS011;40271;48.798;10.178;2022-10-16T14:35:36;2.88;;;1.00;;
54372;SDS011;40271;48.798;10.178;2022-10-16T14:38:03;1.42;;;0.90;;
54372;SDS011;40271;48.798;10.178;2022-10-16T14:40:30;2.10;;;1.13;;
54372;SDS011;40271;48.798;10.178;2022-10-16T14:42:57;2.45;;;1.00;;
54372;SDS011;40271;48.798;10.178;2022-10-16T14:45:24;3.97;;;1.00;;
54372;SDS011;40271;48.798;10.178;2022-10-16T14:47:52;1.95;;;0.88;;
54372;SDS011;40271;48.798;10.178;2022-10-16T14:50:19;1.02;;;0.90;;
54372;SDS011;40271;48.798;10.178;2022-10-16T14:52:45;1.48;;;0.98;;
54372;SDS011;40271;48.798;10.178;2022-10-16T14:55:12;2.25;;;1.00;;
54372;SDS011;40271;48.798;10.178;2022-10-16T14:57:38;2.65;;;1.10;;
54372;SDS011;40271;48.798;10.178;2022-10-16T15:00:09;1.20;;;0.95;;
54372;SDS011;40271;48.798;10.178;2022-10-16T15:02:39;1.70;;;1.15;;
54372;SDS011;40271;48.798;10.178;2022-10-16T15:05:13;2.60;;;1.40;;
54372;SDS011;40271;48.798;10.178;2022-10-16T15:07:39;2.70;;;1.23;;
54372;SDS011;40271;48.798;10.178;2022-10-16T15:10:05;2.03;;;1.15;;
54372;SDS011;40271;48.798;10.178;2022-10-16T15:12:31;1.75;;;1.10;;
54372;SDS011;40271;48.798;10.178;2022-10-16T15:14:57;2.83;;;1.50;;
54372;SDS011;40271;48.798;10.178;2022-10-16T15:17:23;1.30;;;1.20;;
54372;SDS011;40271;48.798;10.178;2022-10-16T15:19:49;7.05;;;1.73;;
54372;SDS011;40271;48.798;10.178;2022-10-16T15:22:16;2.13;;;1.42;;
54372;SDS011;40271;48.798;10.178;2022-10-16T15:24:42;1.85;;;1.50;;
54372;SDS011;40271;48.798;10.178;2022-10-16T15:27:08;3.38;;;1.65;;
54372;SDS011;40271;48.798;10.178;2022-10-16T15:29:34;3.40;;;1.52;;
54372;SDS011;40271;48.798;10.178;2022-10-16T15:32:00;1.92;;;1.60;;
54372;SDS011;40271;48.798;10.178;2022-10-16T15:34:26;10.40;;;3.95;;
54372;SDS011;40271;48.798;10.178;2022-10-16T15:36:52;9.50;;;3.60;;
54372;SDS011;40271;48.798;10.178;2022-10-16T15:39:20;5.00;;;3.03;;
54372;SDS011;40271;48.798;10.178;2022-10-16T15:41:47;4.40;;;2.30;;
54372;SDS011;40271;48.798;10.178;2022-10-16T15:44:16;2.28;;;1.83;;
54372;SDS011;40271;48.798;10.178;2022-10-16T15:46:42;2.30;;;1.77;;
54372;SDS011;40271;48.798;10.178;2022-10-16T15:49:08;3.55;;;1.88;;
54372;SDS011;40271;48.798;10.178;2022-10-16T15:51:34;3.00;;;1.40;;
54372;SDS011;40271;48.798;10.178;2022-10-16T15:54:03;3.90;;;1.50;;
54372;SDS011;40271;48.798;10.178;2022-10-16T15:56:29;4.32;;;3.20;;
54372;SDS011;40271;48.798;10.178;2022-10-16T15:58:58;4.70;;;2.53;;
54372;SDS011;40271;48.798;10.178;2022-10-16T16:01:24;2.05;;;1.50;;
54372;SDS011;40271;48.798;10.178;2022-10-16T16:03:52;2.00;;;1.60;;
54372;SDS011;40271;48.798;10.178;2022-10-16T16:06:18;2.28;;;1.85;;
54372;SDS011;40271;48.798;10.178;2022-10-16T16:08:44;7.60;;;3.80;;
54372;SDS011;40271;48.798;10.178;2022-10-16T16:11:11;15.73;;;9.65;;
54372;SDS011;40271;48.798;10.178;2022-10-16T16:13:38;13.90;;;8.35;;
54372;SDS011;40271;48.798;10.178;2022-10-16T16:16:07;7.70;;;4.00;;
54372;SDS011;40271;48.798;10.178;2022-10-16T16:18:34;6.30;;;3.05;;
54372;SDS011;40271;48.798;10.178;2022-10-16T16:21:00;1.58;;;1.20;;
54372;SDS011;40271;48.798;10.178;2022-10-16T16:23:26;1.70;;;1.30;;
54372;SDS011;40271;48.798;10.178;2022-10-16T16:26:12;1.90;;;1.38;;
54372;SDS011;40271;48.798;10.178;2022-10-16T16:28:39;2.28;;;1.48;;
54372;SDS011;40271;48.798;10.178;2022-10-16T16:31:05;3.78;;;1.63;;
54372;SDS011;40271;48.798;10.178;2022-10-16T16:33:31;6.07;;;2.53;;
54372;SDS011;40271;48.798;10.178;2022-10-16T16:35:58;5.30;;;3.08;;
54372;SDS011;40271;48.798;10.178;2022-10-16T16:38:24;5.05;;;3.38;;
54372;SDS011;40271;48.798;10.178;2022-10-16T16:40:51;8.15;;;3.63;;
54372;SDS011;40271;48.798;10.178;2022-10-16T16:43:17;4.78;;;3.25;;
54372;SDS011;40271;48.798;10.178;2022-10-16T16:45:43;4.88;;;3.10;;
54372;SDS011;40271;48.798;10.178;2022-10-16T16:48:09;6.82;;;2.92;;
54372;SDS011;40271;48.798;10.178;2022-10-16T16:50:36;6.07;;;3.00;;
54372;SDS011;40271;48.798;10.178;2022-10-16T16:53:02;4.65;;;2.70;;
54372;SDS011;40271;48.798;10.178;2022-10-16T16:55:28;8.13;;;2.38;;
54372;SDS011;40271;48.798;10.178;2022-10-16T16:57:54;4.70;;;2.83;;
54372;SDS011;40271;48.798;10.178;2022-10-16T17:00:21;5.47;;;3.35;;
54372;SDS011;40271;48.798;10.178;2022-10-16T17:02:48;9.43;;;3.22;;
54372;SDS011;40271;48.798;10.178;2022-10-16T17:05:15;6.70;;;3.20;;
54372;SDS011;40271;48.798;10.178;2022-10-16T17:07:41;6.13;;;3.80;;